Time;durP1;ratioP1;P1;durP2;ratioP2;P2;SDS_P1;SDS_P2;PMS_P1;PMS_P2;Temp;Humidity;BMP_temperature;BMP_pressure;BME280_temperature;BME280_humidity;BME280_pressure;Samples;Min_cycle;Max_cycle;Signal;HPM_P1;HPM_P2
2022/06/08 00:00:06;;;;;;;15.00;7.20;;;11.60;92.10;;;;;;5037826;28;20180;-87
2022/06/08 00:02:32;;;;;;;22.70;7.63;;;11.60;92.10;;;;;;5037990;28;20196;-88
2022/06/08 00:04:59;;;;;;;14.53;7.80;;;11.50;92.00;;;;;;5037608;28;20203;-87
2022/06/08 00:07:25;;;;;;;14.23;7.80;;;11.30;92.00;;;;;;5037682;28;20195;-87
2022/06/08 00:09:50;;;;;;;11.67;7.67;;;11.30;92.10;;;;;;5037631;28;20172;-87
2022/06/08 00:12:16;;;;;;;15.90;7.67;;;11.30;92.20;;;;;;5037577;28;20188;-87
2022/06/08 00:14:45;;;;;;;10.60;6.70;;;11.30;92.30;;;;;;5055422;28;20191;-87
2022/06/08 00:17:11;;;;;;;15.80;6.27;;;11.40;92.30;;;;;;5037480;28;20177;-87
2022/06/08 00:19:37;;;;;;;13.63;5.63;;;11.50;92.20;;;;;;5037456;28;20168;-87
2022/06/08 00:22:03;;;;;;;10.53;5.70;;;11.50;92.00;;;;;;5037456;28;20539;-87
2022/06/08 00:24:29;;;;;;;14.87;7.10;;;11.50;91.90;;;;;;5036061;28;20183;-88
2022/06/08 00:26:55;;;;;;;11.40;5.93;;;11.50;91.70;;;;;;5037478;28;20246;-88
2022/06/08 00:29:21;;;;;;;7.87;5.33;;;11.50;91.50;;;;;;5037705;28;20225;-88
2022/06/08 00:31:46;;;;;;;13.70;6.57;;;11.60;91.40;;;;;;5037171;28;20195;-88
2022/06/08 00:34:12;;;;;;;11.77;6.67;;;11.60;91.50;;;;;;5037293;28;20654;-88
2022/06/08 00:36:38;;;;;;;13.37;7.63;;;11.50;91.50;;;;;;5037109;28;20187;-88
2022/06/08 00:39:04;;;;;;;14.17;6.87;;;11.50;91.60;;;;;;5037118;28;20190;-87
2022/06/08 00:41:38;;;;;;;12.13;7.47;;;11.40;91.70;;;;;;5054936;28;20196;-87
2022/06/08 00:44:12;;;;;;;15.07;7.13;;;11.30;91.80;;;;;;5036806;28;20622;-87
2022/06/08 00:46:37;;;;;;;15.10;8.07;;;11.20;92.00;;;;;;5036931;28;20192;-88
2022/06/08 00:49:14;;;;;;;15.97;7.07;;;11.20;92.10;;;;;;5036900;28;20741;-88
2022/06/08 00:51:39;;;;;;;13.37;7.43;;;11.20;92.20;;;;;;5054744;28;20195;-87
2022/06/08 00:54:08;;;;;;;16.13;7.90;;;11.10;92.20;;;;;;5054612;28;20227;-87
2022/06/08 00:56:42;;;;;;;12.63;7.87;;;11.20;92.30;;;;;;5036890;28;20183;-88
2022/06/08 00:59:09;;;;;;;16.87;8.30;;;11.20;92.30;;;;;;5054659;28;20188;-88
2022/06/08 01:01:35;;;;;;;14.20;8.23;;;11.00;92.20;;;;;;5036654;28;20191;-88
2022/06/08 01:04:15;;;;;;;12.80;8.30;;;11.10;92.30;;;;;;5036524;28;20207;-87
2022/06/08 01:06:43;;;;;;;15.87;8.77;;;11.00;92.30;;;;;;5054616;28;20188;-88
2022/06/08 01:09:25;;;;;;;10.40;7.67;;;11.00;92.30;;;;;;5036547;28;20555;-87
2022/06/08 01:11:51;;;;;;;9.40;7.17;;;10.90;92.30;;;;;;5036389;28;20259;-87
2022/06/08 01:14:19;;;;;;;16.53;7.77;;;10.90;92.20;;;;;;5036256;28;20286;-88
2022/06/08 01:16:52;;;;;;;11.13;7.43;;;10.80;92.40;;;;;;5054096;28;20176;-87
2022/06/08 01:19:17;;;;;;;22.53;8.30;;;10.70;92.40;;;;;;5036842;28;20255;-88
2022/06/08 01:21:45;;;;;;;11.90;8.00;;;10.70;92.40;;;;;;5036458;28;20211;-88
2022/06/08 01:24:11;;;;;;;11.77;8.03;;;10.60;92.50;;;;;;5036110;28;20200;-88
2022/06/08 01:27:02;;;;;;;13.40;7.73;;;10.60;92.50;;;;;;5036046;28;20570;-88
2022/06/08 01:29:34;;;;;;;14.27;8.57;;;10.60;92.50;;;;;;5036164;28;20176;-87
2022/06/08 01:32:33;;;;;;;9.27;7.97;;;10.50;92.50;;;;;;5054118;28;20168;-87
2022/06/08 01:35:35;;;;;;;14.60;8.60;;;10.40;92.60;;;;;;5035683;28;20727;-88
2022/06/08 01:38:20;;;;;;;11.03;8.17;;;10.50;92.60;;;;;;5035884;28;20215;-88
2022/06/08 01:41:01;;;;;;;19.97;9.00;;;10.40;92.80;;;;;;5035974;28;20226;-88
2022/06/08 01:43:45;;;;;;;12.10;8.93;;;10.50;92.90;;;;;;5035958;28;20268;-87
2022/06/08 01:46:23;;;;;;;12.47;9.50;;;10.40;92.90;;;;;;5053796;28;20558;-87
2022/06/08 01:49:13;;;;;;;18.00;8.37;;;10.30;92.80;;;;;;5035838;28;20172;-87
2022/06/08 01:52:02;;;;;;;11.00;8.77;;;10.20;92.90;;;;;;5035855;28;20214;-88
2022/06/08 01:54:54;;;;;;;14.67;8.53;;;10.20;92.80;;;;;;5035671;28;20175;-88
2022/06/08 01:57:49;;;;;;;9.93;8.30;;;10.20;92.90;;;;;;5035828;28;20184;-88
2022/06/08 02:00:38;;;;;;;14.07;7.73;;;10.20;92.80;;;;;;5035585;28;20190;-88
2022/06/08 02:03:03;;;;;;;13.27;7.63;;;10.30;92.80;;;;;;5035545;28;20212;-88
2022/06/08 02:05:37;;;;;;;10.33;6.23;;;10.30;92.70;;;;;;5035459;28;20204;-88
2022/06/08 02:08:24;;;;;;;9.07;5.70;;;10.40;92.70;;;;;;5035622;28;20222;-88
2022/06/08 02:10:57;;;;;;;11.57;5.63;;;10.40;92.50;;;;;;5053576;28;20657;-88
2022/06/08 02:13:41;;;;;;;9.70;5.53;;;10.30;92.30;;;;;;5053406;28;20211;-88
2022/06/08 02:16:13;;;;;;;5.63;4.87;;;10.30;92.10;;;;;;5053482;28;20172;-88
2022/06/08 02:18:49;;;;;;;8.63;5.33;;;10.30;91.90;;;;;;5035574;28;20168;-88
2022/06/08 02:21:21;;;;;;;10.33;5.43;;;10.20;91.70;;;;;;5053254;28;20225;-88
2022/06/08 02:23:52;;;;;;;5.73;5.13;;;10.10;91.40;;;;;;5035246;28;20254;-88
2022/06/08 02:26:26;;;;;;;7.07;4.90;;;9.90;91.20;;;;;;5053099;28;20215;-88
2022/06/08 02:29:18;;;;;;;9.70;5.43;;;10.00;91.20;;;;;;5036141;28;20285;-88
2022/06/08 02:31:49;;;;;;;14.17;5.57;;;9.90;91.10;;;;;;5027303;28;20245;-88
2022/06/08 02:34:31;;;;;;;13.70;6.00;;;9.90;90.90;;;;;;5035921;28;20170;-88
2022/06/08 02:37:20;;;;;;;8.17;4.87;;;9.80;90.70;;;;;;5035276;28;20171;-88
2022/06/08 02:39:51;;;;;;;4.93;4.50;;;9.80;90.70;;;;;;5035243;28;20160;-88
2022/06/08 02:42:23;;;;;;;9.53;5.60;;;9.80;90.60;;;;;;5035113;28;20568;-88
2022/06/08 02:44:54;;;;;;;7.03;4.67;;;9.80;90.40;;;;;;5053215;28;20544;-88
2022/06/08 02:47:30;;;;;;;9.80;5.57;;;9.70;90.30;;;;;;5037127;28;20203;-88
2022/06/08 02:49:59;;;;;;;8.60;5.53;;;9.70;90.20;;;;;;5057000;28;20144;-88
2022/06/08 02:52:27;;;;;;;6.53;5.70;;;9.70;90.20;;;;;;5039489;28;20196;-88
2022/06/08 02:54:54;;;;;;;5.60;4.87;;;9.70;90.20;;;;;;5038989;28;20179;-88
2022/06/08 02:57:34;;;;;;;8.47;5.07;;;9.70;90.10;;;;;;5039664;28;20183;-88
2022/06/08 03:00:12;;;;;;;6.47;4.70;;;9.70;90.10;;;;;;5057199;28;20160;-88
2022/06/08 03:02:45;;;;;;;8.87;5.73;;;9.70;89.90;;;;;;5038854;28;20199;-88
2022/06/08 03:05:22;;;;;;;9.97;4.73;;;9.70;89.80;;;;;;5038711;28;20192;-88
2022/06/08 03:08:00;;;;;;;8.03;4.70;;;9.70;89.70;;;;;;5038821;28;20555;-88
2022/06/08 03:10:32;;;;;;;5.77;4.53;;;9.70;89.60;;;;;;5038806;28;20521;-88
2022/06/08 03:13:07;;;;;;;8.63;5.33;;;9.80;89.60;;;;;;5056473;28;20716;-88
2022/06/08 03:15:33;;;;;;;8.60;5.10;;;9.80;89.50;;;;;;5056429;28;20187;-88
2022/06/08 03:17:58;;;;;;;10.90;6.73;;;9.80;89.60;;;;;;5038576;28;20673;-88
2022/06/08 03:20:25;;;;;;;12.97;6.60;;;9.80;89.60;;;;;;5038689;28;20242;-88
2022/06/08 03:22:51;;;;;;;10.50;7.10;;;9.80;89.70;;;;;;5056281;28;20196;-88
2022/06/08 03:25:17;;;;;;;11.27;6.10;;;9.80;89.70;;;;;;5038415;28;20196;-88
2022/06/08 03:27:44;;;;;;;12.97;6.67;;;9.90;89.60;;;;;;5038502;28;20176;-88
2022/06/08 03:30:11;;;;;;;8.70;5.80;;;9.90;89.60;;;;;;5056121;28;20191;-88
2022/06/08 03:32:37;;;;;;;12.43;6.00;;;10.00;89.60;;;;;;5056062;28;20267;-88
2022/06/08 03:35:03;;;;;;;9.00;7.60;;;10.00;89.70;;;;;;5038335;28;20689;-88
2022/06/08 03:37:28;;;;;;;11.47;6.53;;;10.00;89.80;;;;;;5038267;28;20176;-88
2022/06/08 03:39:54;;;;;;;10.43;6.70;;;10.00;89.80;;;;;;5038284;28;20649;-88
2022/06/08 03:42:19;;;;;;;11.33;6.80;;;9.90;90.10;;;;;;5038126;28;20203;-88
2022/06/08 03:44:45;;;;;;;12.67;7.40;;;9.90;90.20;;;;;;5055927;28;20608;-88
2022/06/08 03:47:21;;;;;;;15.03;8.77;;;9.90;90.20;;;;;;5055928;28;20168;-88
2022/06/08 03:49:48;;;;;;;17.03;9.27;;;10.00;90.40;;;;;;5038076;28;20172;-88
2022/06/08 03:52:18;;;;;;;17.53;9.60;;;10.00;90.70;;;;;;5038102;28;20191;-88
2022/06/08 03:54:50;;;;;;;17.63;9.30;;;10.00;90.90;;;;;;5037899;28;20175;-88
2022/06/08 03:57:16;;;;;;;11.57;9.50;;;10.10;91.10;;;;;;5037681;28;20167;-88
2022/06/08 03:59:44;;;;;;;17.40;8.63;;;10.20;91.20;;;;;;5037875;28;20541;-88
2022/06/08 04:02:11;;;;;;;12.33;8.30;;;10.40;91.20;;;;;;5055571;28;20245;-87
2022/06/08 04:04:38;;;;;;;15.53;10.73;;;10.60;91.00;;;;;;5038631;28;20223;-88
2022/06/08 04:07:04;;;;;;;13.77;9.53;;;10.80;90.90;;;;;;5037669;28;20206;-87
2022/06/08 04:09:29;;;;;;;15.77;9.63;;;10.80;90.80;;;;;;5037741;28;20664;-88
2022/06/08 04:11:55;;;;;;;16.47;9.57;;;10.90;90.70;;;;;;5037560;28;20213;-88
2022/06/08 04:14:21;;;;;;;12.47;8.70;;;11.10;90.80;;;;;;5037535;28;20286;-88
2022/06/08 04:16:47;;;;;;;14.27;9.97;;;11.20;90.60;;;;;;5037457;28;20183;-88
2022/06/08 04:19:13;;;;;;;9.90;8.30;;;11.20;90.60;;;;;;5038135;28;20176;-88
2022/06/08 04:21:39;;;;;;;14.83;9.27;;;11.30;90.60;;;;;;5037579;28;20179;-88
2022/06/08 04:24:06;;;;;;;10.60;9.27;;;11.30;90.30;;;;;;5055306;28;20203;-87
2022/06/08 04:26:32;;;;;;;15.53;10.27;;;11.30;90.50;;;;;;5055093;28;20200;-88
2022/06/08 04:28:57;;;;;;;12.87;9.53;;;11.30;90.70;;;;;;5037402;28;20172;-88
2022/06/08 04:31:23;;;;;;;17.80;10.77;;;11.40;90.70;;;;;;5037409;28;20176;-88
2022/06/08 04:33:50;;;;;;;22.47;10.83;;;11.50;90.80;;;;;;5055016;28;20192;-88
2022/06/08 04:36:16;;;;;;;14.60;10.60;;;11.50;90.80;;;;;;5037270;28;20178;-88
2022/06/08 04:38:42;;;;;;;18.47;11.07;;;11.50;90.90;;;;;;5037088;28;20184;-88
2022/06/08 04:41:08;;;;;;;13.57;10.13;;;11.40;91.10;;;;;;5037036;28;20183;-88
2022/06/08 04:43:35;;;;;;;20.90;11.67;;;11.50;91.10;;;;;;5036836;28;20292;-88
2022/06/08 04:46:01;;;;;;;14.60;12.30;;;11.40;91.00;;;;;;5054766;28;20204;-88
2022/06/08 04:48:26;;;;;;;18.17;12.83;;;11.30;91.20;;;;;;5055095;28;20257;-88
2022/06/08 04:50:52;;;;;;;15.83;12.10;;;11.30;91.50;;;;;;5037022;28;20172;-88
2022/06/08 04:53:18;;;;;;;15.27;12.53;;;11.30;91.60;;;;;;5054791;28;20278;-88
2022/06/08 04:55:43;;;;;;;17.60;13.10;;;11.30;91.70;;;;;;5036907;28;20207;-88
2022/06/08 04:58:09;;;;;;;13.97;12.30;;;11.40;91.90;;;;;;5036847;28;20179;-88
2022/06/08 05:00:35;;;;;;;15.20;13.60;;;11.40;91.90;;;;;;5036701;28;20171;-88
2022/06/08 05:03:01;;;;;;;19.60;14.97;;;11.40;92.00;;;;;;5054525;28;20544;-88
2022/06/08 05:05:33;;;;;;;18.93;14.30;;;11.50;92.10;;;;;;5036670;28;20286;-88
2022/06/08 05:07:59;;;;;;;17.03;13.53;;;11.50;92.10;;;;;;5036870;28;20179;-88
2022/06/08 05:10:27;;;;;;;17.27;14.73;;;11.50;92.20;;;;;;5035919;28;20266;-88
2022/06/08 05:12:52;;;;;;;22.77;16.13;;;11.50;92.40;;;;;;5054464;28;20192;-88
2022/06/08 05:15:24;;;;;;;20.27;16.63;;;11.60;92.60;;;;;;5054227;28;20203;-88
2022/06/08 05:17:50;;;;;;;21.80;18.87;;;11.70;92.60;;;;;;5036586;28;20187;-88
2022/06/08 05:20:19;;;;;;;22.17;19.07;;;11.80;92.70;;;;;;5054267;28;20176;-88
2022/06/08 05:22:46;;;;;;;26.87;19.50;;;11.90;92.80;;;;;;5036284;28;20677;-88
2022/06/08 05:25:15;;;;;;;27.37;19.57;;;11.90;92.90;;;;;;5036171;28;20291;-88
2022/06/08 05:27:40;;;;;;;24.87;18.63;;;12.00;93.00;;;;;;5036224;28;20178;-87
2022/06/08 05:30:10;;;;;;;25.63;19.93;;;12.20;93.10;;;;;;5036218;28;20259;-88
2022/06/08 05:32:36;;;;;;;27.33;19.13;;;12.20;93.00;;;;;;5036005;28;20194;-88
2022/06/08 05:35:02;;;;;;;26.90;19.63;;;12.30;93.00;;;;;;5036016;28;20555;-88
2022/06/08 05:37:28;;;;;;;25.87;20.63;;;12.40;93.00;;;;;;5036147;28;20266;-88
2022/06/08 05:39:53;;;;;;;29.30;19.67;;;12.50;92.90;;;;;;5053929;28;20676;-88
2022/06/08 05:42:19;;;;;;;29.13;19.97;;;12.60;92.80;;;;;;5035953;28;20195;-88
2022/06/08 05:44:44;;;;;;;23.13;19.00;;;12.70;92.80;;;;;;5035875;28;20176;-88
2022/06/08 05:47:10;;;;;;;24.13;16.10;;;12.70;92.60;;;;;;5035802;28;20168;-88
2022/06/08 05:49:35;;;;;;;21.67;15.03;;;12.80;92.50;;;;;;5035799;28;20224;-88
2022/06/08 05:52:03;;;;;;;21.80;15.37;;;12.80;92.30;;;;;;5035725;28;20210;-88
2022/06/08 05:54:29;;;;;;;23.20;15.67;;;13.00;92.20;;;;;;5053496;28;20175;-88
2022/06/08 05:56:55;;;;;;;26.70;19.37;;;13.00;92.00;;;;;;5035849;28;20172;-88
2022/06/08 05:59:21;;;;;;;37.17;19.30;;;13.40;92.30;;;;;;5035771;28;20172;-88
2022/06/08 06:01:46;;;;;;;21.57;18.30;;;13.60;92.20;;;;;;5035704;28;20181;-88
2022/06/08 06:04:12;;;;;;;21.80;17.53;;;13.70;91.90;;;;;;5035672;28;20650;-88
2022/06/08 06:06:43;;;;;;;23.00;16.87;;;13.70;91.70;;;;;;5035618;28;20234;-88
2022/06/08 06:09:10;;;;;;;25.33;17.57;;;13.70;91.50;;;;;;5053455;28;20170;-88
2022/06/08 06:11:36;;;;;;;18.90;12.97;;;13.80;91.70;;;;;;5035395;28;20179;-88
2022/06/08 06:14:01;;;;;;;14.63;12.80;;;13.60;90.40;;;;;;5053116;28;20204;-88
2022/06/08 06:16:27;;;;;;;17.10;14.23;;;13.50;90.10;;;;;;5035544;28;20586;-88
2022/06/08 06:18:53;;;;;;;18.00;14.17;;;13.50;90.00;;;;;;5035432;28;20183;-88
2022/06/08 06:21:20;;;;;;;16.33;12.83;;;13.50;89.90;;;;;;5035325;28;20172;-88
2022/06/08 06:23:46;;;;;;;20.30;13.60;;;13.50;89.80;;;;;;5053151;28;20199;-88
2022/06/08 06:26:12;;;;;;;18.37;13.10;;;13.60;89.70;;;;;;5035184;28;20206;-87
2022/06/08 06:28:37;;;;;;;15.60;13.13;;;13.60;89.00;;;;;;5035319;28;20176;-88
2022/06/08 06:31:03;;;;;;;20.77;13.30;;;13.70;88.90;;;;;;5053153;28;20168;-88
2022/06/08 06:33:29;;;;;;;17.90;13.40;;;13.80;88.50;;;;;;5035158;28;20203;-88
2022/06/08 06:35:56;;;;;;;19.87;13.40;;;13.80;88.50;;;;;;5053056;28;20542;-88
2022/06/08 06:38:21;;;;;;;18.43;13.23;;;13.80;88.60;;;;;;5035288;28;20266;-88
2022/06/08 06:40:47;;;;;;;16.63;10.87;;;13.80;88.50;;;;;;5035181;28;20207;-88
2022/06/08 06:43:13;;;;;;;14.30;10.97;;;13.80;88.30;;;;;;5035161;28;20237;-88
2022/06/08 06:45:38;;;;;;;13.57;10.67;;;13.90;87.90;;;;;;5035085;28;20233;-88
2022/06/08 06:48:05;;;;;;;18.60;11.47;;;13.80;87.90;;;;;;5052942;28;20180;-88
2022/06/08 06:50:31;;;;;;;15.70;11.77;;;13.80;87.90;;;;;;5035037;28;20251;-88
2022/06/08 06:52:59;;;;;;;21.50;12.60;;;13.80;88.30;;;;;;5034951;28;20636;-88
2022/06/08 06:55:30;;;;;;;19.40;13.17;;;13.80;88.20;;;;;;5035082;28;20186;-88
2022/06/08 06:57:56;;;;;;;18.00;12.47;;;13.80;88.20;;;;;;5035140;28;20168;-87
2022/06/08 07:00:23;;;;;;;19.37;13.07;;;13.80;88.30;;;;;;5053150;28;20210;-88
2022/06/08 07:02:49;;;;;;;19.40;13.03;;;13.90;88.60;;;;;;5035184;28;20199;-88
2022/06/08 07:05:21;;;;;;;28.00;14.53;;;14.00;88.70;;;;;;5052904;28;20211;-88
2022/06/08 07:07:47;;;;;;;18.90;13.30;;;14.10;88.40;;;;;;5035764;28;20168;-88
2022/06/08 07:10:13;;;;;;;19.07;13.20;;;14.30;88.30;;;;;;5035194;28;20180;-88
2022/06/08 07:12:39;;;;;;;16.87;11.70;;;14.30;88.20;;;;;;5034929;28;20196;-88
2022/06/08 07:15:05;;;;;;;22.83;14.57;;;14.10;87.20;;;;;;5034731;28;20558;-87
2022/06/08 07:17:31;;;;;;;20.77;13.63;;;14.20;87.70;;;;;;5052725;28;20176;-88
2022/06/08 07:19:56;;;;;;;18.70;13.60;;;14.40;87.90;;;;;;5034864;28;20187;-88
2022/06/08 07:22:22;;;;;;;22.97;13.27;;;14.60;87.80;;;;;;5034777;28;20617;-88
2022/06/08 07:24:48;;;;;;;19.73;12.00;;;14.70;87.60;;;;;;5034784;28;20597;-88
2022/06/08 07:27:14;;;;;;;17.73;13.27;;;14.80;87.00;;;;;;5034773;28;20179;-88
2022/06/08 07:29:40;;;;;;;17.37;12.07;;;14.90;87.00;;;;;;5052910;28;20172;-88
2022/06/08 07:32:06;;;;;;;15.63;10.83;;;15.20;87.20;;;;;;5052475;28;20176;-88
2022/06/08 07:34:32;;;;;;;14.93;11.30;;;15.10;85.10;;;;;;5038392;28;20180;-88
2022/06/08 07:37:00;;;;;;;19.60;11.80;;;15.20;86.00;;;;;;5056279;28;20652;-89
2022/06/08 07:39:26;;;;;;;13.87;10.87;;;15.40;86.10;;;;;;5038463;28;20180;-88
2022/06/08 07:41:52;;;;;;;16.20;11.02;;;15.50;85.30;;;;;;5039032;28;20718;-87
2022/06/08 07:44:18;;;;;;;12.77;10.57;;;15.50;85.50;;;;;;5038174;28;20220;-87
2022/06/08 07:46:45;;;;;;;19.75;11.10;;;15.70;85.20;;;;;;5038183;28;20236;-87
2022/06/08 07:49:39;;;;;;;19.10;10.85;;;15.70;84.70;;;;;;5038133;28;20664;-88
2022/06/08 07:52:10;;;;;;;17.67;10.60;;;15.80;83.30;;;;;;5037980;28;20477;-87
2022/06/08 07:54:36;;;;;;;13.93;10.85;;;15.80;83.00;;;;;;5038526;28;20757;-88
2022/06/08 07:57:03;;;;;;;11.82;10.10;;;15.90;83.10;;;;;;5038983;28;20233;-87
2022/06/08 07:59:31;;;;;;;11.85;9.18;;;16.00;82.70;;;;;;5055863;28;20193;-87
2022/06/08 08:01:57;;;;;;;12.55;9.35;;;16.10;82.90;;;;;;5055735;28;20180;-87
2022/06/08 08:04:23;;;;;;;13.85;9.60;;;16.20;81.90;;;;;;5055753;28;20664;-87
2022/06/08 08:06:48;;;;;;;14.25;8.98;;;16.30;81.10;;;;;;5037981;28;20210;-87
2022/06/08 08:09:18;;;;;;;16.08;8.27;;;16.20;80.60;;;;;;5039055;28;20560;-87
2022/06/08 08:11:45;;;;;;;13.02;7.60;;;16.30;80.60;;;;;;5037919;28;20168;-87
2022/06/08 08:14:14;;;;;;;10.57;8.10;;;16.30;80.80;;;;;;5055464;28;20250;-87
2022/06/08 08:16:42;;;;;;;14.23;8.52;;;16.30;79.50;;;;;;5055624;28;20219;-87
2022/06/08 08:19:09;;;;;;;11.93;7.97;;;16.40;79.50;;;;;;5037784;28;20599;-87
2022/06/08 08:21:37;;;;;;;10.68;8.35;;;16.40;79.00;;;;;;5037659;28;20230;-89
2022/06/08 08:24:03;;;;;;;11.38;7.43;;;16.50;80.00;;;;;;5055388;28;20196;-87
2022/06/08 08:26:29;;;;;;;11.85;7.38;;;16.90;79.20;;;;;;5037710;28;20235;-88
2022/06/08 08:28:55;;;;;;;10.48;6.50;;;16.90;78.80;;;;;;5037543;28;20258;-88
2022/06/08 08:31:21;;;;;;;11.18;6.78;;;17.20;78.20;;;;;;5037456;28;20197;-88
2022/06/08 08:33:47;;;;;;;8.38;5.70;;;17.30;76.90;;;;;;5055446;28;20184;-87
2022/06/08 08:36:13;;;;;;;10.20;6.88;;;17.40;75.60;;;;;;5037614;28;20226;-87
2022/06/08 08:38:38;;;;;;;8.93;5.85;;;17.30;76.60;;;;;;5055233;28;20222;-87
2022/06/08 08:41:04;;;;;;;10.75;6.03;;;17.60;75.60;;;;;;5055241;28;20164;-88
2022/06/08 08:43:37;;;;;;;8.35;6.30;;;17.80;74.90;;;;;;5054763;28;20612;-88
2022/06/08 08:46:21;;;;;;;12.02;6.88;;;18.10;74.00;;;;;;5036678;28;20200;-88
2022/06/08 08:49:02;;;;;;;8.85;6.07;;;17.90;73.00;;;;;;5037204;28;20611;-87
2022/06/08 08:51:36;;;;;;;4.88;4.45;;;17.90;74.90;;;;;;5037231;28;20261;-88
2022/06/08 08:54:22;;;;;;;8.15;4.88;;;18.30;72.40;;;;;;5037804;28;20200;-88
2022/06/08 08:56:49;;;;;;;8.18;6.03;;;18.50;72.00;;;;;;5055110;28;20157;-88
2022/06/08 08:59:24;;;;;;;8.32;4.80;;;18.60;71.70;;;;;;5036843;28;20683;-88
2022/06/08 09:01:54;;;;;;;9.77;5.38;;;18.60;74.00;;;;;;5054558;28;20167;-88
2022/06/08 09:04:33;;;;;;;8.80;5.35;;;18.80;72.70;;;;;;5037045;28;20252;-88
2022/06/08 09:07:15;;;;;;;9.40;5.45;;;19.00;70.90;;;;;;5036625;28;20198;-88
2022/06/08 09:09:41;;;;;;;7.22;4.13;;;19.10;71.30;;;;;;5037104;28;20603;-88
2022/06/08 09:12:19;;;;;;;7.88;3.53;;;19.10;69.00;;;;;;5036597;28;21477;-88
2022/06/08 09:14:49;;;;;;;8.60;4.40;;;19.00;64.30;;;;;;5036669;28;20196;-88
2022/06/08 09:17:19;;;;;;;6.22;3.40;;;19.10;67.60;;;;;;5054334;28;20194;-88
2022/06/08 09:19:47;;;;;;;7.90;3.63;;;19.10;66.40;;;;;;5036446;28;20230;-88
2022/06/08 09:22:18;;;;;;;5.88;3.55;;;19.20;66.40;;;;;;5054174;28;20187;-88
2022/06/08 09:24:58;;;;;;;6.72;4.00;;;19.40;67.60;;;;;;5054257;28;20167;-88
2022/06/08 09:27:26;;;;;;;6.35;3.15;;;19.60;67.80;;;;;;5054256;28;20160;-88
2022/06/08 09:30:00;;;;;;;6.47;4.05;;;19.10;63.90;;;;;;5036388;28;20545;-88
2022/06/08 09:32:37;;;;;;;4.97;3.42;;;18.90;62.50;;;;;;5036307;28;20194;-88
2022/06/08 09:35:26;;;;;;;7.68;3.70;;;19.30;66.40;;;;;;5036509;28;20210;-88
2022/06/08 09:37:56;;;;;;;5.97;4.30;;;19.70;66.90;;;;;;5054490;28;20177;-89
2022/06/08 09:40:36;;;;;;;9.38;5.53;;;19.60;64.70;;;;;;5036605;28;20198;-88
2022/06/08 09:43:17;;;;;;;11.70;5.20;;;19.40;66.20;;;;;;5036350;28;20207;-88
2022/06/08 09:45:57;;;;;;;7.47;6.60;;;19.30;66.10;;;;;;5036476;28;20192;-89
2022/06/08 09:51:55;;;;;;;8.95;6.75;;;19.20;68.20;;;;;;5054384;28;20206;-89
2022/06/08 09:54:27;;;;;;;8.95;6.78;;;19.40;66.30;;;;;;5036394;28;20168;-90
2022/06/08 09:57:08;;;;;;;9.30;8.20;;;19.40;65.50;;;;;;5035880;28;20674;-90
2022/06/08 10:00:02;;;;;;;10.82;7.72;;;19.60;67.90;;;;;;5037107;28;20196;-90
2022/06/08 10:02:53;;;;;;;10.85;7.85;;;19.80;67.00;;;;;;5054217;28;20200;-89
2022/06/08 10:05:44;;;;;;;9.68;8.18;;;19.60;66.90;;;;;;5036478;28;20322;-90
2022/06/08 10:08:56;;;;;;;11.07;8.25;;;19.70;68.80;;;;;;5054289;28;20186;-89
2022/06/08 10:11:39;;;;;;;11.98;8.70;;;19.30;69.10;;;;;;5010396;28;20267;-90
2022/06/08 10:14:36;;;;;;;10.88;7.72;;;19.50;68.40;;;;;;5035654;28;20231;-89
2022/06/08 10:17:18;;;;;;;15.95;10.32;;;19.50;69.10;;;;;;5053249;28;20180;-88
2022/06/08 10:20:04;;;;;;;14.50;10.55;;;19.20;69.20;;;;;;5035477;28;20164;-89
2022/06/08 10:22:42;;;;;;;12.52;10.32;;;19.40;69.60;;;;;;5035975;28;20200;-89
2022/06/08 10:25:19;;;;;;;12.85;9.73;;;19.70;69.00;;;;;;5035554;28;20735;-87
2022/06/08 10:28:09;;;;;;;17.50;10.77;;;19.70;68.90;;;;;;5035313;28;20641;-88
2022/06/08 10:30:45;;;;;;;12.73;10.18;;;19.60;69.10;;;;;;5053287;28;20247;-87
2022/06/08 10:33:39;;;;;;;14.98;11.82;;;19.90;69.70;;;;;;5053089;28;20742;-88
2022/06/08 10:36:10;;;;;;;21.13;11.70;;;20.10;67.80;;;;;;5052646;28;20191;-87
2022/06/08 10:38:38;;;;;;;15.95;11.70;;;20.20;70.60;;;;;;5035755;28;20168;-88
2022/06/08 10:43:58;;;;;;;16.23;10.93;;;20.70;68.90;;;;;;5053460;28;20259;-87
2022/06/08 10:46:31;;;;;;;16.85;11.02;;;20.80;66.00;;;;;;5035414;28;20617;-87
2022/06/08 10:48:56;;;;;;;12.25;9.35;;;20.30;67.80;;;;;;5035409;28;20665;-88
2022/06/08 10:51:29;;;;;;;13.82;10.07;;;20.50;66.70;;;;;;5035170;28;20184;-87
2022/06/08 10:56:39;;;;;;;10.63;8.65;;;20.60;64.40;;;;;;5053476;28;20175;-87
2022/06/08 10:59:08;;;;;;;9.80;8.57;;;20.50;65.50;;;;;;5035478;28;20176;-87
2022/06/08 11:02:16;;;;;;;11.70;9.13;;;20.30;65.60;;;;;;5052769;28;20643;-87
2022/06/08 11:04:51;;;;;;;13.15;9.77;;;20.00;65.80;;;;;;5043176;28;20188;-88
2022/06/08 11:07:19;;;;;;;10.77;9.05;;;20.00;66.80;;;;;;5035569;28;20225;-87
2022/06/08 11:09:51;;;;;;;9.35;8.35;;;20.30;67.90;;;;;;5056757;28;20221;-88
2022/06/08 11:12:30;;;;;;;12.27;8.48;;;20.60;67.10;;;;;;5056574;28;20673;-87
2022/06/08 11:15:00;;;;;;;10.15;7.93;;;20.70;66.90;;;;;;5038670;28;20791;-88
2022/06/08 11:17:35;;;;;;;12.18;8.65;;;21.10;64.90;;;;;;5038810;28;20267;-87
2022/06/08 11:20:23;;;;;;;9.32;8.40;;;20.40;63.70;;;;;;5056873;28;20144;-87
2022/06/08 11:22:58;;;;;;;15.32;9.52;;;20.50;66.00;;;;;;5038564;28;20286;-87
2022/06/08 11:25:31;;;;;;;12.88;9.27;;;20.40;65.00;;;;;;5038423;28;20289;-87
2022/06/08 11:28:30;;;;;;;10.30;9.20;;;20.40;68.50;;;;;;5056698;28;20163;-87
2022/06/08 11:31:03;;;;;;;11.52;8.82;;;20.60;65.00;;;;;;5038460;28;20251;-87
2022/06/08 11:33:49;;;;;;;9.77;8.25;;;20.40;65.40;;;;;;5038602;28;20196;-87
2022/06/08 11:36:45;;;;;;;10.02;8.20;;;20.30;65.70;;;;;;5038446;28;20642;-88
2022/06/08 11:39:26;;;;;;;8.10;7.38;;;20.20;66.50;;;;;;5038592;28;20215;-88
2022/06/08 11:42:14;;;;;;;8.70;7.43;;;20.40;68.00;;;;;;5038738;28;20172;-88
2022/06/08 11:44:50;;;;;;;7.18;6.47;;;20.20;66.10;;;;;;5038450;28;20190;-88
2022/06/08 11:47:22;;;;;;;8.63;6.97;;;20.40;67.10;;;;;;5038539;28;20630;-87
2022/06/08 11:50:01;;;;;;;9.85;7.45;;;20.40;64.70;;;;;;5056410;28;20159;-88
2022/06/08 11:52:29;;;;;;;7.03;6.32;;;20.60;65.80;;;;;;5038281;28;20195;-88
2022/06/08 11:55:17;;;;;;;9.63;7.60;;;20.70;66.00;;;;;;5056264;28;20290;-87
2022/06/08 11:58:05;;;;;;;13.50;10.68;;;20.60;64.40;;;;;;5056095;28;20168;-87
2022/06/08 12:00:36;;;;;;;8.75;7.85;;;21.00;65.70;;;;;;5037593;28;20605;-88
2022/06/08 12:03:26;;;;;;;8.88;7.97;;;20.80;65.90;;;;;;5055690;28;20566;-87
2022/06/08 12:06:03;;;;;;;9.63;7.57;;;20.60;64.90;;;;;;5037719;28;20192;-88
2022/06/08 12:09:10;;;;;;;9.77;7.45;;;20.60;65.30;;;;;;5037912;28;20174;-87
2022/06/08 12:11:40;;;;;;;9.70;7.85;;;20.80;65.50;;;;;;5054790;28;20183;-87
2022/06/08 12:14:27;;;;;;;18.17;8.27;;;20.70;66.50;;;;;;5055265;28;20203;-87
2022/06/08 12:17:23;;;;;;;10.60;8.35;;;20.80;66.40;;;;;;5055673;28;20582;-88
2022/06/08 12:19:55;;;;;;;8.57;7.75;;;20.50;66.80;;;;;;5037672;28;20184;-88
2022/06/08 12:22:30;;;;;;;9.85;7.63;;;20.50;67.40;;;;;;5037742;28;20200;-88
2022/06/08 12:25:19;;;;;;;9.10;7.67;;;20.40;66.80;;;;;;5037841;28;20163;-88
2022/06/08 12:27:55;;;;;;;8.85;7.50;;;20.30;67.10;;;;;;5037395;28;20172;-87
2022/06/08 12:30:31;;;;;;;9.32;7.80;;;20.40;67.00;;;;;;5037416;28;20172;-87
2022/06/08 12:32:57;;;;;;;14.43;8.65;;;20.40;67.50;;;;;;5037609;28;20192;-87
2022/06/08 12:35:28;;;;;;;10.70;7.88;;;20.70;67.30;;;;;;5037208;28;20172;-87
2022/06/08 12:38:11;;;;;;;10.23;8.35;;;21.20;68.40;;;;;;5054983;28;20184;-87
2022/06/08 12:40:37;;;;;;;11.02;8.35;;;21.60;64.30;;;;;;5055310;28;20251;-87
2022/06/08 12:43:12;;;;;;;10.20;8.35;;;21.70;63.40;;;;;;5037011;28;20315;-87
2022/06/08 12:46:13;;;;;;;9.85;8.52;;;21.70;62.80;;;;;;5037137;28;20199;-88
2022/06/08 12:49:12;;;;;;;9.98;9.07;;;21.80;62.10;;;;;;5037206;28;20160;-87
2022/06/08 12:51:45;;;;;;;11.25;9.40;;;21.50;62.40;;;;;;5036980;28;20176;-87
2022/06/08 12:54:18;;;;;;;11.68;9.27;;;21.30;62.80;;;;;;5036882;28;20196;-87
2022/06/08 12:56:47;;;;;;;12.38;9.43;;;21.20;63.00;;;;;;5054968;28;20163;-87
2022/06/08 12:59:13;;;;;;;10.25;9.18;;;21.20;62.20;;;;;;5054948;28;20180;-87
2022/06/08 13:01:41;;;;;;;9.63;8.60;;;21.00;63.90;;;;;;5037494;28;20176;-88
2022/06/08 13:04:06;;;;;;;10.52;9.30;;;21.10;65.10;;;;;;5037103;28;20199;-88
2022/06/08 13:06:32;;;;;;;11.43;10.23;;;21.10;65.40;;;;;;5036922;28;20728;-89
2022/06/08 13:08:58;;;;;;;10.02;9.02;;;20.80;66.60;;;;;;5054732;28;20172;-87
2022/06/08 13:11:26;;;;;;;10.25;9.15;;;20.60;65.30;;;;;;5036746;28;20176;-87